Time;durP1;ratioP1;P1;durP2;ratioP2;P2;SDS_P1;SDS_P2;PMS_P1;PMS_P2;Temp;Humidity;BMP_temperature;BMP_pressure;BME280_temperature;BME280_humidity;BME280_pressure;Samples;Min_cycle;Max_cycle;Signal;HPM_P1;HPM_P2
2023/01/31 00:01:26;;;;;;;21.58;3.88;;;2.70;99.90;;;;;;5156078;27;20046;-74
2023/01/31 00:03:57;;;;;;;14.95;2.33;;;2.60;99.90;;;;;;5155095;27;20047;-74
2023/01/31 00:06:29;;;;;;;20.08;2.13;;;2.70;99.90;;;;;;5148558;27;20051;-74
2023/01/31 00:08:56;;;;;;;6.63;1.90;;;2.70;99.90;;;;;;5132573;27;20053;-75
2023/01/31 00:11:23;;;;;;;12.10;2.33;;;2.70;99.90;;;;;;5116555;27;20047;-75
2023/01/31 00:13:50;;;;;;;9.13;1.48;;;2.70;99.90;;;;;;5135082;27;20142;-75
2023/01/31 00:16:17;;;;;;;12.77;2.53;;;2.70;99.90;;;;;;5134704;27;20558;-75
2023/01/31 00:18:43;;;;;;;18.40;2.25;;;2.70;99.90;;;;;;5134590;27;20373;-75
2023/01/31 00:21:16;;;;;;;11.45;2.40;;;2.70;99.90;;;;;;5134512;27;20403;-74
2023/01/31 00:23:43;;;;;;;9.43;1.40;;;2.70;99.90;;;;;;5147729;27;20042;-74
2023/01/31 00:26:20;;;;;;;16.80;2.13;;;2.60;99.90;;;;;;5136404;27;20062;-74
2023/01/31 00:28:48;;;;;;;17.27;2.97;;;2.60;99.90;;;;;;5149073;27;20503;-75
2023/01/31 00:31:15;;;;;;;11.68;2.38;;;2.60;99.90;;;;;;5155097;27;20047;-75
2023/01/31 00:33:43;;;;;;;10.98;2.20;;;2.60;99.90;;;;;;5155105;27;20050;-74
2023/01/31 00:36:14;;;;;;;20.98;2.28;;;2.60;99.90;;;;;;5155028;27;20043;-75
2023/01/31 00:38:44;;;;;;;16.02;2.33;;;2.60;99.90;;;;;;5137897;27;20055;-75
2023/01/31 00:41:10;;;;;;;14.10;1.77;;;2.60;99.90;;;;;;5147789;27;20051;-74
2023/01/31 00:43:36;;;;;;;14.07;2.55;;;2.60;99.90;;;;;;5155154;27;20039;-75
2023/01/31 00:46:03;;;;;;;15.13;1.88;;;2.60;99.90;;;;;;5136490;27;20054;-75
2023/01/31 00:48:29;;;;;;;14.05;1.90;;;2.60;99.90;;;;;;5135499;27;20045;-74
2023/01/31 00:50:54;;;;;;;;;;;2.60;99.90;;;;;;5147886;27;20047;-74
2023/01/31 00:53:24;;;;;;;21.98;2.55;;;2.50;99.90;;;;;;5144386;27;19919;-74
2023/01/31 00:55:55;;;;;;;10.32;1.88;;;2.90;99.90;;;;;;5155236;27;20085;-74
2023/01/31 00:58:21;;;;;;;20.30;2.55;;;2.40;99.90;;;;;;5149978;27;20051;-75
2023/01/31 01:00:47;;;;;;;9.35;1.95;;;2.40;99.90;;;;;;5154991;27;20046;-75
2023/01/31 01:03:13;;;;;;;11.45;2.53;;;2.20;99.90;;;;;;5153642;27;20057;-75
2023/01/31 01:05:40;;;;;;;6.20;1.77;;;2.00;99.90;;;;;;5154596;27;20571;-75
2023/01/31 01:08:06;;;;;;;8.35;1.55;;;2.00;99.90;;;;;;5133323;27;20042;-75
2023/01/31 01:10:32;;;;;;;10.43;1.83;;;1.90;99.90;;;;;;5152961;27;20495;-75
2023/01/31 01:12:58;;;;;;;19.08;2.45;;;1.90;99.90;;;;;;5136038;27;20419;-75
2023/01/31 01:15:23;;;;;;;18.35;2.13;;;1.80;99.90;;;;;;5146151;27;20127;-74
2023/01/31 01:17:49;;;;;;;16.13;1.60;;;1.80;99.90;;;;;;5115313;27;20043;-75
2023/01/31 01:20:15;;;;;;;;;;;1.80;99.90;;;;;;5133793;27;20122;-75
2023/01/31 01:22:41;;;;;;;18.80;2.65;;;1.80;99.90;;;;;;5140837;27;20013;-75
2023/01/31 01:25:08;;;;;;;15.20;2.20;;;1.70;99.90;;;;;;5154048;27;20047;-75
2023/01/31 01:27:33;;;;;;;12.07;2.25;;;1.70;99.90;;;;;;5154548;27;20441;-75
2023/01/31 01:30:00;;;;;;;9.75;2.08;;;1.90;99.90;;;;;;5154328;27;20045;-75
2023/01/31 01:32:27;;;;;;;13.88;1.90;;;1.60;99.90;;;;;;5154245;27;20046;-74
2023/01/31 01:34:52;;;;;;;;;;;1.60;99.90;;;;;;5154677;27;20047;-75
2023/01/31 01:37:21;;;;;;;13.85;1.67;;;1.50;99.90;;;;;;5152021;27;20456;-75
2023/01/31 01:39:48;;;;;;;10.40;1.80;;;1.60;99.90;;;;;;5146493;27;20043;-74
2023/01/31 01:42:19;;;;;;;14.45;2.03;;;1.40;99.90;;;;;;5153568;27;20047;-75
2023/01/31 01:44:49;;;;;;;11.65;2.15;;;1.50;99.90;;;;;;5154499;27;20087;-75
2023/01/31 01:47:21;;;;;;;15.95;1.88;;;1.50;99.90;;;;;;5153185;27;20054;-74
2023/01/31 01:49:51;;;;;;;17.95;2.70;;;1.50;99.90;;;;;;5153969;27;20399;-74
2023/01/31 01:52:17;;;;;;;11.05;2.47;;;1.70;99.90;;;;;;5152297;27;20046;-75
2023/01/31 01:54:54;;;;;;;12.70;2.53;;;1.60;99.90;;;;;;5134474;27;20061;-74
2023/01/31 01:57:29;;;;;;;14.52;2.22;;;1.60;99.90;;;;;;5135068;27;20046;-75
2023/01/31 02:00:17;;;;;;;12.60;2.25;;;1.60;99.90;;;;;;5140332;27;20047;-75
2023/01/31 02:02:46;;;;;;;13.30;2.53;;;1.60;99.90;;;;;;5132273;27;20488;-75
2023/01/31 02:05:14;;;;;;;12.77;2.10;;;1.70;99.90;;;;;;5140046;27;20050;-75
2023/01/31 02:07:40;;;;;;;12.25;1.92;;;2.20;99.90;;;;;;5151474;27;20101;-75
2023/01/31 02:10:16;;;;;;;17.88;2.30;;;1.70;99.90;;;;;;5153013;27;20145;-75
2023/01/31 02:12:42;;;;;;;12.33;1.80;;;1.70;99.90;;;;;;5153553;27;20092;-75
2023/01/31 02:15:08;;;;;;;7.15;1.52;;;1.70;99.90;;;;;;5150918;27;20324;-75
2023/01/31 02:17:34;;;;;;;18.30;2.50;;;1.70;99.90;;;;;;5132326;27;20382;-75
2023/01/31 02:20:27;;;;;;;14.00;1.60;;;1.60;99.90;;;;;;5132935;27;20058;-74
2023/01/31 02:23:24;;;;;;;14.95;1.38;;;1.60;99.90;;;;;;5111924;27;20066;-74
2023/01/31 02:25:58;;;;;;;10.73;2.00;;;1.50;99.90;;;;;;5150047;27;20514;-74
2023/01/31 02:28:48;;;;;;;11.80;1.77;;;1.50;99.90;;;;;;5152892;27;20054;-75
2023/01/31 02:31:36;;;;;;;12.98;1.65;;;1.40;99.90;;;;;;5147259;27;20042;-75
2023/01/31 02:34:13;;;;;;;;;;;1.30;99.90;;;;;;5153111;27;20082;-75
2023/01/31 02:36:48;;;;;;;9.13;1.45;;;1.30;99.90;;;;;;5153222;27;19922;-75
2023/01/31 02:39:25;;;;;;;21.02;2.03;;;1.30;99.90;;;;;;5150915;27;20054;-74
2023/01/31 02:42:05;;;;;;;24.85;2.70;;;1.30;99.90;;;;;;5152982;27;20042;-75
2023/01/31 02:45:00;;;;;;;16.83;2.13;;;1.30;99.90;;;;;;5152290;27;20134;-75
2023/01/31 02:47:50;;;;;;;9.88;1.90;;;1.40;99.90;;;;;;5145135;27;20051;-75
2023/01/31 02:50:33;;;;;;;7.78;1.58;;;1.50;99.90;;;;;;5131840;27;20047;-75
2023/01/31 02:53:34;;;;;;;9.10;1.42;;;1.70;99.90;;;;;;5129997;27;20051;-75
2023/01/31 02:56:16;;;;;;;10.65;1.80;;;1.70;99.90;;;;;;5114437;27;20078;-75
2023/01/31 02:59:05;;;;;;;11.25;1.85;;;1.80;99.90;;;;;;5114122;27;20130;-75
2023/01/31 03:01:37;;;;;;;8.23;1.95;;;1.90;99.90;;;;;;5131299;27;20046;-74
2023/01/31 03:04:07;;;;;;;11.52;2.08;;;1.90;99.90;;;;;;5145035;27;20400;-75
2023/01/31 03:06:35;;;;;;;15.18;2.33;;;2.00;99.90;;;;;;5152286;27;20085;-75
2023/01/31 03:09:12;;;;;;;7.25;1.95;;;2.00;99.90;;;;;;5147845;27;20121;-75
2023/01/31 03:11:52;;;;;;;11.05;1.90;;;2.00;99.90;;;;;;5152610;27;20509;-75
2023/01/31 03:14:17;;;;;;;10.80;2.72;;;2.40;99.90;;;;;;5133572;27;20484;-75
2023/01/31 03:19:47;;;;;;;11.45;2.10;;;2.20;99.90;;;;;;5152291;27;20134;-75
2023/01/31 03:22:17;;;;;;;11.65;2.47;;;2.70;99.90;;;;;;5136772;27;20047;-74
2023/01/31 03:24:47;;;;;;;18.38;2.40;;;2.30;99.90;;;;;;5151684;27;20165;-74
2023/01/31 03:27:14;;;;;;;8.48;2.47;;;2.30;99.90;;;;;;5151878;27;20046;-75
2023/01/31 03:29:40;;;;;;;11.82;1.80;;;2.30;99.90;;;;;;5152358;27;20115;-75
2023/01/31 03:32:15;;;;;;;4.80;1.45;;;2.40;99.90;;;;;;5154608;27;20039;-75
2023/01/31 03:34:41;;;;;;;17.40;2.70;;;2.40;99.90;;;;;;5154617;27;20047;-75
2023/01/31 03:37:25;;;;;;;18.25;1.75;;;2.90;99.90;;;;;;5153276;27;20506;-75
2023/01/31 03:40:04;;;;;;;11.68;2.25;;;2.50;99.90;;;;;;5137339;27;20095;-75
2023/01/31 03:42:36;;;;;;;13.63;2.60;;;2.60;99.90;;;;;;5137456;27;20042;-75
2023/01/31 03:45:08;;;;;;;6.65;1.50;;;2.70;99.90;;;;;;5138300;27;20046;-74
2023/01/31 03:47:47;;;;;;;9.07;1.77;;;2.80;99.90;;;;;;5155461;27;20051;-75
2023/01/31 03:50:25;;;;;;;15.00;2.90;;;2.90;99.90;;;;;;5156207;27;20051;-76
2023/01/31 03:53:06;;;;;;;20.95;2.00;;;2.90;99.90;;;;;;5154476;27;20053;-75
2023/01/31 03:55:43;;;;;;;13.43;1.65;;;3.00;99.90;;;;;;5155773;27;20051;-75
2023/01/31 03:58:11;;;;;;;19.92;2.47;;;3.00;99.90;;;;;;5151198;27;20121;-75
2023/01/31 04:00:40;;;;;;;13.60;1.90;;;3.10;99.90;;;;;;5135104;27;20047;-75
2023/01/31 04:03:13;;;;;;;8.43;1.60;;;3.10;99.90;;;;;;5134944;27;20400;-75
2023/01/31 04:05:39;;;;;;;19.02;2.15;;;3.10;99.90;;;;;;5116937;27;20196;-75
2023/01/31 04:08:05;;;;;;;10.25;2.70;;;3.10;99.90;;;;;;5115372;27;20122;-75
2023/01/31 04:10:31;;;;;;;11.18;1.90;;;3.90;99.90;;;;;;5112779;28;20126;-75
2023/01/31 04:12:57;;;;;;;10.88;1.88;;;3.10;99.90;;;;;;5114449;28;20044;-74
2023/01/31 04:15:23;;;;;;;16.15;2.33;;;3.20;99.90;;;;;;5113269;28;20067;-75
2023/01/31 04:17:48;;;;;;;11.00;2.05;;;3.10;99.90;;;;;;5113212;28;20044;-75
2023/01/31 04:20:15;;;;;;;13.50;2.05;;;3.50;99.90;;;;;;5112924;28;20043;-76
2023/01/31 04:22:41;;;;;;;13.75;2.10;;;3.20;99.90;;;;;;5112247;28;20036;-75
2023/01/31 04:25:07;;;;;;;12.48;3.90;;;3.20;99.90;;;;;;5113295;28;20043;-75
2023/01/31 04:27:33;;;;;;;12.25;2.15;;;3.20;99.90;;;;;;5113886;27;20036;-75
2023/01/31 04:29:58;;;;;;;13.60;2.05;;;3.30;99.90;;;;;;5114465;28;20043;-75
2023/01/31 04:32:24;;;;;;;5.03;2.58;;;3.30;99.90;;;;;;5113552;27;20042;-75
2023/01/31 04:34:50;;;;;;;12.45;2.30;;;3.30;99.90;;;;;;5114113;28;20054;-75
2023/01/31 04:37:16;;;;;;;14.38;1.73;;;3.30;99.90;;;;;;5112913;28;20073;-76
2023/01/31 04:39:41;;;;;;;9.15;2.60;;;3.30;99.90;;;;;;5111694;28;20039;-75
2023/01/31 04:42:07;;;;;;;20.05;2.75;;;3.30;99.90;;;;;;5113052;28;20473;-75
2023/01/31 04:44:33;;;;;;;19.00;3.20;;;3.30;99.90;;;;;;5112279;28;20097;-75
2023/01/31 04:46:58;;;;;;;10.10;2.17;;;3.30;99.90;;;;;;5112834;28;20052;-75
2023/01/31 04:49:24;;;;;;;5.30;1.65;;;3.30;99.90;;;;;;5112009;28;20051;-75
2023/01/31 04:51:50;;;;;;;13.55;1.90;;;3.30;99.90;;;;;;5113915;27;20054;-75
2023/01/31 04:54:18;;;;;;;16.77;2.45;;;3.40;99.90;;;;;;5112072;28;20039;-75
2023/01/31 04:56:43;;;;;;;14.98;2.60;;;3.40;99.90;;;;;;5112635;28;20481;-75
2023/01/31 04:59:09;;;;;;;10.38;2.45;;;3.50;99.90;;;;;;5113022;28;20101;-75
2023/01/31 05:01:35;;;;;;;12.52;2.17;;;3.50;99.90;;;;;;5112516;28;20067;-75
2023/01/31 05:04:00;;;;;;;14.57;2.90;;;3.60;99.90;;;;;;5113405;28;20504;-75
2023/01/31 05:06:26;;;;;;;10.23;2.10;;;3.70;99.90;;;;;;5113013;28;20130;-75
2023/01/31 05:08:53;;;;;;;15.43;2.88;;;3.60;99.90;;;;;;5110633;28;20063;-75
2023/01/31 05:11:19;;;;;;;12.57;2.75;;;3.70;99.90;;;;;;5112089;28;20067;-76
2023/01/31 05:13:46;;;;;;;;;;;3.70;99.90;;;;;;5113855;28;20107;-75
2023/01/31 05:16:12;;;;;;;10.65;2.53;;;3.80;99.90;;;;;;5113496;28;19926;-75
2023/01/31 05:18:38;;;;;;;14.95;2.47;;;3.70;99.90;;;;;;5112273;28;20665;-75
2023/01/31 05:21:06;;;;;;;18.73;3.05;;;3.80;99.90;;;;;;5113358;28;20047;-75
2023/01/31 05:23:31;;;;;;;11.65;2.45;;;4.00;99.90;;;;;;5114054;27;20058;-75
2023/01/31 05:25:57;;;;;;;17.80;3.00;;;3.80;99.90;;;;;;5113179;28;20134;-75
2023/01/31 05:28:25;;;;;;;13.68;2.40;;;3.90;99.90;;;;;;5112889;28;20044;-75
2023/01/31 05:31:01;;;;;;;15.77;3.47;;;3.80;99.90;;;;;;5113218;28;20048;-75
2023/01/31 05:33:27;;;;;;;16.92;2.90;;;4.00;99.90;;;;;;5112181;28;20047;-75
2023/01/31 05:35:53;;;;;;;13.77;2.92;;;3.80;99.90;;;;;;5113146;28;20130;-75
2023/01/31 05:38:19;;;;;;;18.20;2.30;;;3.80;99.90;;;;;;5111511;28;20134;-75
2023/01/31 05:40:45;;;;;;;14.75;3.30;;;3.80;99.90;;;;;;5112520;28;20047;-75
2023/01/31 05:43:11;;;;;;;19.08;3.15;;;3.90;99.90;;;;;;5120283;27;20180;-75
2023/01/31 05:45:36;;;;;;;14.60;3.30;;;3.80;99.90;;;;;;5112318;28;20545;-75
2023/01/31 05:48:02;;;;;;;17.77;3.00;;;3.70;99.90;;;;;;5111189;28;20473;-75
2023/01/31 05:50:28;;;;;;;14.13;2.85;;;3.80;99.90;;;;;;5124833;27;20126;-75
2023/01/31 05:52:58;;;;;;;23.30;3.65;;;3.90;99.90;;;;;;5130961;27;20134;-75
2023/01/31 05:55:24;;;;;;;6.03;2.63;;;3.80;99.90;;;;;;5131171;27;20047;-76
2023/01/31 05:57:54;;;;;;;12.70;2.90;;;3.80;99.90;;;;;;5132103;27;20450;-75
2023/01/31 06:00:21;;;;;;;18.42;3.13;;;3.80;99.90;;;;;;5133432;27;20051;-75
2023/01/31 06:02:47;;;;;;;12.85;3.08;;;3.90;99.90;;;;;;5124520;27;20048;-75
2023/01/31 06:05:13;;;;;;;24.17;4.32;;;3.90;99.90;;;;;;5131498;27;20039;-75
2023/01/31 06:07:39;;;;;;;18.88;3.50;;;4.00;99.90;;;;;;5130611;27;20054;-76
2023/01/31 06:10:07;;;;;;;19.95;4.10;;;4.00;99.90;;;;;;5120407;27;20138;-75
2023/01/31 06:12:33;;;;;;;18.27;3.33;;;4.00;99.90;;;;;;5132318;27;20055;-75
2023/01/31 06:14:59;;;;;;;29.55;5.43;;;4.10;99.90;;;;;;5133196;27;20062;-75
2023/01/31 06:17:25;;;;;;;15.90;3.53;;;4.20;99.90;;;;;;5132246;27;20472;-76
2023/01/31 06:19:51;;;;;;;18.92;3.70;;;4.20;99.90;;;;;;5132715;27;20480;-75
2023/01/31 06:22:20;;;;;;;21.60;3.75;;;4.40;99.90;;;;;;5131553;27;20039;-75
2023/01/31 06:24:45;;;;;;;16.67;4.25;;;4.30;99.90;;;;;;5136900;27;20043;-75
2023/01/31 06:27:11;;;;;;;11.98;3.50;;;4.30;99.90;;;;;;5117437;27;20053;-75
2023/01/31 06:29:37;;;;;;;24.92;5.22;;;4.40;99.90;;;;;;5152816;27;20563;-75
2023/01/31 06:32:03;;;;;;;16.33;3.70;;;4.40;99.90;;;;;;5152998;27;20054;-75
2023/01/31 06:34:29;;;;;;;23.85;4.97;;;4.50;99.90;;;;;;5152504;27;20050;-75
2023/01/31 06:36:54;;;;;;;17.50;4.75;;;4.50;99.90;;;;;;5134260;27;20365;-76
2023/01/31 06:39:20;;;;;;;21.15;4.47;;;4.60;99.90;;;;;;5130383;27;20080;-75
2023/01/31 06:41:46;;;;;;;22.48;6.15;;;4.70;99.90;;;;;;5131640;27;20078;-75
2023/01/31 06:44:11;;;;;;;26.45;5.03;;;4.70;99.90;;;;;;5114157;27;20050;-75
2023/01/31 06:46:37;;;;;;;18.77;4.45;;;4.80;99.90;;;;;;5136094;27;20047;-75
2023/01/31 06:49:03;;;;;;;19.83;3.97;;;4.90;99.90;;;;;;5131663;27;20126;-75
2023/01/31 06:51:29;;;;;;;26.98;6.22;;;4.90;99.90;;;;;;5131692;27;20472;-75
2023/01/31 06:53:55;;;;;;;23.95;5.10;;;4.80;99.90;;;;;;5130128;27;20047;-75
2023/01/31 06:56:21;;;;;;;22.35;5.47;;;4.90;99.90;;;;;;5132108;27;20047;-75
2023/01/31 06:58:47;;;;;;;;;;;4.90;99.90;;;;;;5132088;27;20117;-75
2023/01/31 07:01:14;;;;;;;18.15;5.18;;;5.10;99.90;;;;;;5131709;27;20402;-75
2023/01/31 07:03:40;;;;;;;18.92;5.50;;;5.00;99.90;;;;;;5151402;27;20592;-75
2023/01/31 07:06:07;;;;;;;31.60;5.70;;;5.10;99.90;;;;;;5116392;27;20057;-75
2023/01/31 07:08:34;;;;;;;14.93;4.35;;;5.10;99.90;;;;;;5148215;27;20034;-75
2023/01/31 07:11:03;;;;;;;;;;;5.10;99.90;;;;;;5132458;27;20055;-75
2023/01/31 07:13:29;;;;;;;32.10;6.28;;;5.20;99.90;;;;;;5131475;27;20463;-76
2023/01/31 07:15:55;;;;;;;21.40;5.97;;;5.40;99.90;;;;;;5113765;28;20053;-75
2023/01/31 07:18:21;;;;;;;30.17;4.57;;;5.20;99.90;;;;;;5131381;27;20051;-74
2023/01/31 07:20:48;;;;;;;11.52;4.05;;;5.20;99.90;;;;;;5134352;27;20127;-75
2023/01/31 07:23:14;;;;;;;22.80;4.60;;;5.20;99.90;;;;;;5145348;27;20540;-75
2023/01/31 07:25:39;;;;;;;22.42;5.18;;;5.30;99.90;;;;;;5151842;27;20042;-76
2023/01/31 07:28:05;;;;;;;19.55;4.13;;;5.30;99.90;;;;;;5134273;27;20440;-75
2023/01/31 07:30:31;;;;;;;21.15;5.00;;;5.30;99.90;;;;;;5141947;27;20058;-76
2023/01/31 07:32:56;;;;;;;12.02;3.53;;;5.70;99.90;;;;;;5118337;27;20118;-75
2023/01/31 07:35:22;;;;;;;14.07;4.25;;;5.30;99.90;;;;;;5151548;27;20042;-74
2023/01/31 07:37:51;;;;;;;22.83;4.57;;;5.40;99.90;;;;;;5144196;27;20047;-74
2023/01/31 07:40:17;;;;;;;19.50;3.55;;;5.40;99.90;;;;;;5148921;27;20047;-75
2023/01/31 07:42:43;;;;;;;21.10;4.75;;;5.40;99.90;;;;;;5151006;27;20094;-74
2023/01/31 07:45:11;;;;;;;11.32;3.00;;;5.40;99.90;;;;;;5152299;27;20054;-73
2023/01/31 07:47:37;;;;;;;18.13;3.83;;;5.50;99.90;;;;;;5138675;27;20099;-75
2023/01/31 07:50:03;;;;;;;18.15;3.10;;;5.50;99.90;;;;;;5104246;28;20051;-74
2023/01/31 07:52:30;;;;;;;;;;;5.50;99.90;;;;;;5096409;27;20046;-74
2023/01/31 07:54:55;;;;;;;20.17;3.63;;;5.80;99.90;;;;;;5123726;27;19923;-74
2023/01/31 07:57:21;;;;;;;22.38;3.97;;;5.50;99.90;;;;;;5131518;28;20047;-74
2023/01/31 07:59:47;;;;;;;17.55;3.72;;;5.50;99.90;;;;;;5130968;28;20520;-74
2023/01/31 08:04:59;;;;;;;20.95;3.60;;;5.50;99.90;;;;;;5130998;28;20051;-74
2023/01/31 08:07:25;;;;;;;18.85;3.58;;;5.50;99.90;;;;;;5130410;28;20132;-74
2023/01/31 08:09:51;;;;;;;17.75;3.08;;;5.50;99.90;;;;;;5129634;28;20067;-74
2023/01/31 08:12:17;;;;;;;8.00;2.67;;;5.50;99.90;;;;;;5138904;27;20054;-75
2023/01/31 08:14:42;;;;;;;12.40;2.70;;;5.50;99.90;;;;;;5151439;27;20392;-74
2023/01/31 08:17:09;;;;;;;26.13;3.10;;;5.60;99.90;;;;;;5129915;27;20092;-75
2023/01/31 08:19:35;;;;;;;24.80;4.78;;;5.60;99.90;;;;;;5125593;27;20083;-75
2023/01/31 08:22:01;;;;;;;;;;;5.60;99.90;;;;;;5134253;27;20093;-75
2023/01/31 08:24:27;;;;;;;21.35;3.50;;;5.60;99.90;;;;;;5134001;27;19919;-74
2023/01/31 08:26:53;;;;;;;14.48;3.40;;;5.60;99.90;;;;;;5116086;27;20050;-74
2023/01/31 08:29:19;;;;;;;14.30;2.97;;;5.70;99.90;;;;;;5135253;27;20055;-75
2023/01/31 08:31:44;;;;;;;10.05;3.20;;;5.70;99.90;;;;;;5099368;27;20488;-74
2023/01/31 08:34:10;;;;;;;9.77;3.97;;;5.80;99.90;;;;;;5134296;27;20042;-77
2023/01/31 08:36:36;;;;;;;15.93;3.08;;;5.70;99.90;;;;;;5116754;27;20374;-76
2023/01/31 08:39:03;;;;;;;20.17;4.35;;;5.70;99.90;;;;;;5144590;27;20038;-73
2023/01/31 08:41:31;;;;;;;15.60;3.30;;;5.70;99.90;;;;;;5171360;27;20050;-75
2023/01/31 08:43:57;;;;;;;20.58;4.20;;;5.70;99.90;;;;;;5168102;27;20133;-76
2023/01/31 08:46:31;;;;;;;20.90;4.03;;;5.70;99.90;;;;;;5168583;27;20505;-75
2023/01/31 08:48:57;;;;;;;23.70;5.57;;;5.70;99.90;;;;;;5168614;27;20882;-76
2023/01/31 08:51:23;;;;;;;14.07;3.60;;;5.70;99.90;;;;;;5173094;27;20046;-76
2023/01/31 08:53:49;;;;;;;16.60;3.60;;;5.70;99.90;;;;;;5167365;27;20049;-76
2023/01/31 08:56:15;;;;;;;9.98;3.42;;;5.80;99.90;;;;;;5167336;27;20562;-76
2023/01/31 08:58:43;;;;;;;13.82;3.50;;;5.70;99.90;;;;;;5165410;27;20046;-76
2023/01/31 09:01:14;;;;;;;16.73;4.13;;;5.80;99.90;;;;;;5168284;27;20053;-76
2023/01/31 09:03:40;;;;;;;13.68;2.97;;;5.70;99.90;;;;;;5173454;27;20050;-77
2023/01/31 09:06:09;;;;;;;17.52;4.32;;;5.70;99.90;;;;;;5158695;27;20038;-75
2023/01/31 09:08:35;;;;;;;24.38;4.50;;;5.80;99.90;;;;;;5157983;27;20065;-76
2023/01/31 09:11:01;;;;;;;16.77;3.45;;;5.70;99.90;;;;;;5172461;27;20507;-75
2023/01/31 09:13:28;;;;;;;17.83;3.85;;;5.90;99.90;;;;;;5155712;27;20117;-75
2023/01/31 09:16:11;;;;;;;18.10;3.60;;;5.70;99.90;;;;;;5172553;27;20045;-75
2023/01/31 09:18:39;;;;;;;16.27;2.85;;;5.70;99.90;;;;;;5172020;27;20042;-74
2023/01/31 09:21:14;;;;;;;14.90;3.55;;;5.80;99.90;;;;;;5147941;27;20050;-75
2023/01/31 09:23:40;;;;;;;19.30;4.15;;;5.80;99.90;;;;;;5145075;27;20074;-76
2023/01/31 09:26:06;;;;;;;12.45;3.60;;;5.80;99.90;;;;;;5141405;27;20054;-75
2023/01/31 09:28:32;;;;;;;17.73;4.25;;;5.90;99.90;;;;;;5135278;27;20049;-75
2023/01/31 09:31:05;;;;;;;;;;;5.80;99.90;;;;;;5152835;27;20080;-75
2023/01/31 09:33:32;;;;;;;12.77;3.67;;;5.80;99.90;;;;;;5153112;27;19942;-74
2023/01/31 09:36:16;;;;;;;12.07;3.08;;;5.80;99.90;;;;;;5157020;27;20054;-74
2023/01/31 09:38:41;;;;;;;16.02;3.55;;;5.90;99.90;;;;;;5152074;27;20050;-76
2023/01/31 09:41:16;;;;;;;10.50;3.38;;;5.90;99.90;;;;;;5161011;27;20042;-75
2023/01/31 09:43:49;;;;;;;17.63;4.07;;;5.90;99.90;;;;;;5169035;27;20065;-76
2023/01/31 09:46:18;;;;;;;11.50;3.47;;;6.00;99.90;;;;;;5138068;27;20083;-75
2023/01/31 09:48:47;;;;;;;14.52;3.55;;;6.10;99.90;;;;;;5149569;27;20083;-77
2023/01/31 09:51:14;;;;;;;13.05;3.78;;;6.10;99.90;;;;;;5167053;27;20038;-76
2023/01/31 09:53:41;;;;;;;9.65;2.80;;;6.20;99.90;;;;;;5138816;27;20049;-72
2023/01/31 09:56:22;;;;;;;10.50;2.90;;;6.20;99.90;;;;;;5160627;27;20630;-76
2023/01/31 09:58:50;;;;;;;15.27;3.38;;;6.20;99.90;;;;;;5155874;27;20046;-75
2023/01/31 10:01:25;;;;;;;15.18;3.03;;;6.30;99.90;;;;;;5150874;27;20042;-74
2023/01/31 10:04:04;;;;;;;11.00;3.13;;;6.30;99.90;;;;;;5153966;27;20372;-74
2023/01/31 10:07:02;;;;;;;15.65;3.13;;;6.40;99.90;;;;;;5153906;27;20507;-74
2023/01/31 10:09:35;;;;;;;;;;;6.40;99.90;;;;;;5159350;27;20034;-74
2023/01/31 10:12:16;;;;;;;12.10;2.80;;;6.40;99.90;;;;;;5170956;27;19971;-74
2023/01/31 10:15:16;;;;;;;10.10;3.08;;;6.50;99.90;;;;;;5153943;27;20050;-74
2023/01/31 10:17:48;;;;;;;10.73;3.75;;;6.40;99.90;;;;;;5132182;27;20046;-74
2023/01/31 10:20:29;;;;;;;13.38;2.88;;;6.40;99.90;;;;;;5172539;27;20097;-76
2023/01/31 10:23:17;;;;;;;10.68;2.55;;;6.40;99.90;;;;;;5168563;27;20176;-75
2023/01/31 10:25:51;;;;;;;13.93;3.25;;;6.50;99.90;;;;;;5152364;27;20148;-73
2023/01/31 10:28:35;;;;;;;11.93;2.72;;;6.50;99.90;;;;;;5151949;27;20440;-74
2023/01/31 10:31:09;;;;;;;13.20;3.42;;;6.50;99.90;;;;;;5135452;27;20102;-73
2023/01/31 10:33:54;;;;;;;10.50;2.72;;;6.50;99.90;;;;;;5152437;27;20041;-73
2023/01/31 10:36:31;;;;;;;9.93;2.55;;;6.50;99.90;;;;;;5153282;27;20092;-73
2023/01/31 10:39:00;;;;;;;12.68;2.97;;;6.50;99.90;;;;;;5150776;27;20047;-73
2023/01/31 10:42:00;;;;;;;13.40;2.88;;;6.50;99.90;;;;;;5153028;27;20054;-73
2023/01/31 10:44:44;;;;;;;12.40;2.90;;;6.50;99.90;;;;;;5151963;27;20074;-73
2023/01/31 10:47:15;;;;;;;10.80;2.28;;;6.50;99.90;;;;;;5142226;27;20038;-73
2023/01/31 10:49:49;;;;;;;9.77;2.90;;;6.50;99.90;;;;;;5141594;27;20051;-74
2023/01/31 10:52:35;;;;;;;11.13;2.97;;;6.50;99.90;;;;;;5141041;27;20039;-74
2023/01/31 10:55:26;;;;;;;11.02;3.22;;;6.50;99.90;;;;;;5129877;27;20100;-73
2023/01/31 10:57:53;;;;;;;14.68;2.85;;;6.50;99.90;;;;;;5137159;27;20065;-73
2023/01/31 11:00:23;;;;;;;14.23;2.55;;;6.50;99.90;;;;;;5132421;27;20063;-73
2023/01/31 11:02:48;;;;;;;14.80;3.70;;;6.60;99.90;;;;;;5132871;27;20047;-72
2023/01/31 11:05:21;;;;;;;13.73;2.83;;;6.50;99.90;;;;;;5134935;27;20043;-74
2023/01/31 11:07:46;;;;;;;11.40;3.03;;;6.50;99.90;;;;;;5137313;27;20508;-72
2023/01/31 11:10:23;;;;;;;8.63;2.45;;;6.40;99.90;;;;;;5122234;27;20050;-72
2023/01/31 11:12:55;;;;;;;12.90;2.53;;;6.40;99.90;;;;;;5141290;27;20053;-75
2023/01/31 11:15:25;;;;;;;14.43;2.70;;;6.40;99.90;;;;;;5146233;27;20111;-72
2023/01/31 11:17:51;;;;;;;15.32;3.58;;;6.30;99.90;;;;;;5154279;27;20067;-75
2023/01/31 11:20:28;;;;;;;;;;;6.30;99.90;;;;;;5158894;27;20038;-72
2023/01/31 11:22:56;;;;;;;12.68;3.15;;;6.30;99.90;;;;;;5136707;27;19930;-73
2023/01/31 11:25:24;;;;;;;17.08;4.53;;;6.20;99.90;;;;;;5151442;27;20076;-71
2023/01/31 11:27:53;;;;;;;18.48;3.20;;;6.20;99.90;;;;;;5161056;27;20042;-72
2023/01/31 11:30:24;;;;;;;17.25;3.20;;;6.20;99.90;;;;;;5172776;27;20114;-71
2023/01/31 11:32:50;;;;;;;10.45;3.15;;;6.40;99.90;;;;;;5152429;27;20045;-71
2023/01/31 11:35:15;;;;;;;17.33;3.50;;;6.20;99.90;;;;;;5151403;27;20050;-72
2023/01/31 11:38:03;;;;;;;9.98;2.95;;;6.20;99.90;;;;;;5141760;27;20043;-74
2023/01/31 11:40:35;;;;;;;16.63;4.03;;;6.20;99.90;;;;;;5135055;27;20082;-72
2023/01/31 11:43:20;;;;;;;15.18;3.60;;;6.20;99.90;;;;;;5151274;27;20127;-71
2023/01/31 11:45:57;;;;;;;18.00;3.63;;;6.20;99.90;;;;;;5159956;27;20135;-71
2023/01/31 11:48:26;;;;;;;18.65;4.22;;;6.30;99.90;;;;;;5164946;27;20090;-72
2023/01/31 11:50:57;;;;;;;15.27;3.63;;;6.30;99.90;;;;;;5170637;27;20038;-72
2023/01/31 11:53:32;;;;;;;17.33;3.80;;;6.30;99.90;;;;;;5166928;27;20049;-71
2023/01/31 11:56:10;;;;;;;23.23;4.50;;;6.40;99.90;;;;;;5173116;27;20042;-72
2023/01/31 11:58:39;;;;;;;12.65;3.20;;;6.40;99.90;;;;;;5160508;27;20090;-72
2023/01/31 12:01:15;;;;;;;14.73;3.83;;;6.40;99.90;;;;;;5153482;27;20510;-71
2023/01/31 12:03:58;;;;;;;10.05;3.47;;;6.50;99.90;;;;;;5155092;27;20039;-71
2023/01/31 12:06:33;;;;;;;18.52;3.95;;;6.40;99.90;;;;;;5135215;27;20121;-73
2023/01/31 12:09:00;;;;;;;16.08;3.83;;;6.40;99.90;;;;;;5151731;27;20064;-73
2023/01/31 12:11:29;;;;;;;15.38;3.88;;;6.50;99.90;;;;;;5154279;27;20072;-72
2023/01/31 12:14:15;;;;;;;24.77;4.45;;;6.50;99.90;;;;;;5154356;27;20484;-75
2023/01/31 12:16:43;;;;;;;22.40;4.32;;;6.50;99.90;;;;;;5154078;27;20044;-72
2023/01/31 12:19:11;;;;;;;16.10;3.67;;;6.50;99.90;;;;;;5144675;27;20125;-72
2023/01/31 12:22:04;;;;;;;15.85;3.58;;;6.50;99.90;;;;;;5148715;27;20046;-71
2023/01/31 12:24:41;;;;;;;24.70;3.20;;;6.60;99.90;;;;;;5143869;27;20047;-73
2023/01/31 12:27:24;;;;;;;16.30;3.53;;;6.70;99.90;;;;;;5135651;27;20133;-70
2023/01/31 12:30:14;;;;;;;17.92;3.58;;;6.70;99.90;;;;;;5152026;27;20787;-72
2023/01/31 12:32:46;;;;;;;16.45;4.03;;;6.80;99.90;;;;;;5153350;27;20118;-72
2023/01/31 12:35:24;;;;;;;18.35;3.67;;;6.80;99.90;;;;;;5139809;27;20087;-73
2023/01/31 12:38:22;;;;;;;8.25;2.58;;;6.90;99.90;;;;;;5147492;27;20057;-74
2023/01/31 12:41:14;;;;;;;16.85;3.17;;;6.90;99.90;;;;;;5152358;27;20042;-71
2023/01/31 12:44:04;;;;;;;10.60;3.10;;;7.00;99.90;;;;;;5164933;27;20035;-73
2023/01/31 12:47:02;;;;;;;15.20;2.85;;;7.00;99.90;;;;;;5165688;27;20038;-73
2023/01/31 12:49:59;;;;;;;21.20;3.47;;;7.10;99.90;;;;;;5171140;27;20042;-72
2023/01/31 12:52:58;;;;;;;15.02;3.30;;;7.20;99.90;;;;;;5173039;27;20061;-73
2023/01/31 12:55:42;;;;;;;12.77;2.78;;;7.20;99.90;;;;;;5171131;27;20070;-71
2023/01/31 12:58:42;;;;;;;7.63;2.10;;;7.20;99.90;;;;;;5172679;27;20088;-72
2023/01/31 13:01:33;;;;;;;14.77;2.95;;;7.20;99.90;;;;;;5157300;27;20042;-74
2023/01/31 13:04:29;;;;;;;10.98;3.00;;;7.30;99.90;;;;;;5158864;27;20045;-77
2023/01/31 13:07:18;;;;;;;11.63;3.42;;;7.30;99.90;;;;;;5153365;27;20042;-76
2023/01/31 13:09:47;;;;;;;10.93;2.13;;;7.30;99.90;;;;;;5132799;27;20058;-72
2023/01/31 13:12:18;;;;;;;12.05;2.67;;;7.40;99.90;;;;;;5164167;27;20523;-71
2023/01/31 13:14:56;;;;;;;12.68;2.72;;;7.40;99.90;;;;;;5153452;27;20117;-72
2023/01/31 13:17:27;;;;;;;27.05;3.50;;;7.40;99.90;;;;;;5151604;27;20498;-72